This is the latest recevied weather packets stored in our database for station/object GW1545. If no packets are shown the sender has not sent any weather packets the latest 10 day(s).
| Time | Temp. | Humidity | Pressure | Rain* | Wind** | Luminosity | Snow |
|---|---|---|---|---|---|---|---|
| 1777604801 | 6.67° C | 84% | 1019.3 hPa | 0 mm | - | - | - |
| 1777602278 | 6.67° C | 85% | 1018.9 hPa | 0 mm | - | - | - |
| 1777600495 | 8.89° C | 71% | 1018.9 hPa | 0 mm | - | - | - |
| 1777598331 | 9.44° C | 70% | 1018.6 hPa | 0 mm | - | - | - |
| 1777595807 | 10.56° C | 62% | 1018.6 hPa | 0 mm | - | - | - |
| 1777592921 | 12.22° C | 53% | 1017.9 hPa | 0 mm | - | - | - |
| 1777590413 | 16.11° C | 43% | 1017.9 hPa | 0 mm | - | - | - |
| 1777588951 | 16.67° C | 46% | 1017.9 hPa | 0 mm | - | - | - |
| 1777584619 | 15.56° C | 55% | 1018.2 hPa | 0 mm | - | - | - |
| 1777583566 | 15.56° C | 49% | 1018.2 hPa | 0 mm | - | - | - |
| 1777573462 | 13.33° C | 59% | 1018.9 hPa | 0 mm | - | - | - |
| 1777573122 | 13.33° C | 57% | 1018.9 hPa | 0 mm | - | - | - |
| 1777568074 | 12.78° C | 61% | 1018.9 hPa | 0 mm | - | - | - |
| 1777564853 | 13.89° C | 55% | 1018.6 hPa | 0 mm | - | - | - |
| 1777564461 | 13.89° C | 57% | 1018.9 hPa | 0 mm | - | - | - |
| 1777555118 | 11.11° C | 69% | 1018.2 hPa | 0 mm | - | - | - |
| 1777554031 | 11.11° C | 72% | 1017.9 hPa | 0 mm | - | - | - |
| 1777552218 | 8.89° C | 79% | 1017.9 hPa | 0 mm | - | - | - |
| 1777547554 | 8.33° C | 85% | 1016.9 hPa | 0 mm | - | - | - |
| 1777543972 | 8.33° C | 91% | 1015.9 hPa | 0 mm | - | - | - |
| 1777541793 | 8.89° C | 89% | 1015.5 hPa | 0 mm | - | - | - |
| 1777541092 | 9.44° C | 88% | 1015.5 hPa | 0 mm | - | - | - |
| 1777539636 | 10° C | 88% | 1014.9 hPa | 0 mm | - | - | - |
| 1777533490 | 11.11° C | 94% | 1015.9 hPa | 0 mm | - | - | - |
| 1777533164 | 11.11° C | 95% | 1015.9 hPa | 0 mm | - | - | - |
* Rain since midnight (hover to see other rain measurements)
** Current wind speed in m/s (hover to see current wind gust speed)